Time;durP1;ratioP1;P1;durP2;ratioP2;P2;SDS_P1;SDS_P2;PMS_P1;PMS_P2;Temp;Humidity;BMP_temperature;BMP_pressure;BME280_temperature;BME280_humidity;BME280_pressure;Samples;Min_cycle;Max_cycle;Signal;HPM_P1;HPM_P2
2022/04/17 00:00:38;;;;;;;1.98;1.50;;;;;;;;;;4392101;32;20094;-72
2022/04/17 00:03:06;;;;;;;3.30;1.60;;;;;;;;;;4390247;32;20082;-72
2022/04/17 00:05:34;;;;;;;4.20;1.80;;;;;;;;;;4390940;32;20090;-71
2022/04/17 00:08:02;;;;;;;2.97;2.20;;;;;;;;;;4377303;32;20070;-71
2022/04/17 00:10:28;;;;;;;1.55;1.45;;;;;;;;;;4390171;32;20085;-72
2022/04/17 00:12:55;;;;;;;2.50;1.73;;;;;;;;;;4390004;32;20154;-71
2022/04/17 00:15:22;;;;;;;3.28;1.90;;;;;;;;;;4390079;32;20079;-71
2022/04/17 00:17:48;;;;;;;2.15;1.80;;;;;;;;;;4391538;32;20085;-71
2022/04/17 00:20:16;;;;;;;1.90;1.70;;;;;;;;;;4390459;32;20085;-71
2022/04/17 00:22:44;;;;;;;2.47;1.85;;;;;;;;;;4377548;32;20170;-72
2022/04/17 00:25:12;;;;;;;2.35;1.70;;;;;;;;;;4377236;32;20459;-71
2022/04/17 00:27:41;;;;;;;3.60;1.87;;;;;;;;;;4389831;32;20158;-71
2022/04/17 00:30:09;;;;;;;2.42;1.92;;;;;;;;;;4391359;32;20074;-71
2022/04/17 00:32:36;;;;;;;1.98;1.62;;;;;;;;;;4377381;32;20085;-71
2022/04/17 00:35:04;;;;;;;4.43;2.20;;;;;;;;;;4389527;32;20065;-71
2022/04/17 00:37:31;;;;;;;3.35;1.83;;;;;;;;;;4389741;32;20138;-72
2022/04/17 00:39:58;;;;;;;2.03;1.83;;;;;;;;;;4393845;32;20099;-72
2022/04/17 00:42:24;;;;;;;3.03;1.70;;;;;;;;;;4392946;32;20093;-71
2022/04/17 00:44:51;;;;;;;2.22;1.60;;;;;;;;;;4392667;32;20081;-71
2022/04/17 00:47:18;;;;;;;2.37;1.70;;;;;;;;;;4392553;32;20077;-72
2022/04/17 00:49:45;;;;;;;3.22;1.60;;;;;;;;;;4394161;32;20097;-70
2022/04/17 00:52:13;;;;;;;2.78;1.52;;;;;;;;;;4392960;32;20503;-71
2022/04/17 00:54:44;;;;;;;2.55;1.77;;;;;;;;;;4380839;32;20084;-72
2022/04/17 00:57:12;;;;;;;2.78;1.67;;;;;;;;;;4393387;32;20073;-71
2022/04/17 00:59:44;;;;;;;2.47;1.62;;;;;;;;;;4394432;32;20083;-71
2022/04/17 01:02:14;;;;;;;3.17;1.73;;;;;;;;;;4380326;32;20150;-71
2022/04/17 01:04:40;;;;;;;2.87;1.87;;;;;;;;;;4392825;32;20080;-72
2022/04/17 01:07:08;;;;;;;1.65;1.55;;;;;;;;;;4392640;32;20524;-71
2022/04/17 01:09:36;;;;;;;2.10;1.70;;;;;;;;;;4392460;32;20085;-72
2022/04/17 01:12:07;;;;;;;2.62;2.05;;;;;;;;;;4393768;32;20066;-71
2022/04/17 01:14:39;;;;;;;3.30;2.10;;;;;;;;;;4393664;32;20081;-71
2022/04/17 01:17:07;;;;;;;2.97;2.10;;;;;;;;;;4392622;32;20081;-72
2022/04/17 01:19:37;;;;;;;3.87;1.85;;;;;;;;;;4379901;32;20146;-72
2022/04/17 01:22:06;;;;;;;2.42;1.83;;;;;;;;;;4393255;32;20078;-72
2022/04/17 01:27:21;;;;;;;2.93;1.63;;;;;;;;;;4381135;32;20514;-71
2022/04/17 01:29:50;;;;;;;2.72;2.10;;;;;;;;;;4379729;32;20620;-71
2022/04/17 01:32:17;;;;;;;1.60;1.50;;;;;;;;;;4392222;32;20069;-72
2022/04/17 01:34:44;;;;;;;2.33;1.70;;;;;;;;;;4392308;32;20170;-70
2022/04/17 01:37:11;;;;;;;3.53;1.70;;;;;;;;;;4393447;32;20159;-71
2022/04/17 01:39:38;;;;;;;4.03;2.10;;;;;;;;;;4379795;32;20070;-72
2022/04/17 01:42:05;;;;;;;2.72;1.75;;;;;;;;;;4392098;32;20075;-72
2022/04/17 01:44:32;;;;;;;4.40;2.08;;;;;;;;;;4392069;32;20101;-71
2022/04/17 01:46:59;;;;;;;5.53;2.10;;;;;;;;;;4392057;32;20149;-72
2022/04/17 01:49:26;;;;;;;3.80;1.80;;;;;;;;;;4393567;32;20164;-72
2022/04/17 01:51:53;;;;;;;4.47;2.03;;;;;;;;;;4392410;32;20096;-71
2022/04/17 01:54:21;;;;;;;3.05;2.00;;;;;;;;;;4379993;32;20112;-71
2022/04/17 01:56:48;;;;;;;4.40;1.90;;;;;;;;;;4392465;32;20150;-72
2022/04/17 01:59:16;;;;;;;3.10;1.90;;;;;;;;;;4366523;32;20094;-71
2022/04/17 02:01:43;;;;;;;1.73;1.40;;;;;;;;;;4392050;32;20081;-71
2022/04/17 02:04:10;;;;;;;2.67;1.73;;;;;;;;;;4391257;32;20516;-72
2022/04/17 02:06:39;;;;;;;2.60;2.08;;;;;;;;;;4392135;32;20105;-71
2022/04/17 02:09:11;;;;;;;2.20;1.65;;;;;;;;;;4391755;32;20097;-72
2022/04/17 02:11:38;;;;;;;3.37;1.85;;;;;;;;;;4391643;32;20078;-72
2022/04/17 02:14:06;;;;;;;2.45;1.75;;;;;;;;;;4391586;32;20070;-72
2022/04/17 02:16:33;;;;;;;3.83;1.90;;;;;;;;;;4393190;32;20088;-71
2022/04/17 02:19:00;;;;;;;2.92;1.70;;;;;;;;;;4391781;32;20096;-71
2022/04/17 02:21:28;;;;;;;2.28;1.83;;;;;;;;;;4392195;32;20096;-71
2022/04/17 02:23:55;;;;;;;1.87;1.60;;;;;;;;;;4379624;32;20073;-71
2022/04/17 02:26:22;;;;;;;2.20;1.80;;;;;;;;;;4391691;32;20077;-72
2022/04/17 02:28:49;;;;;;;2.90;1.70;;;;;;;;;;4393091;32;20077;-72
2022/04/17 02:31:17;;;;;;;2.75;1.70;;;;;;;;;;4378540;32;20429;-72
2022/04/17 02:33:44;;;;;;;2.70;1.85;;;;;;;;;;4392776;32;20531;-71
2022/04/17 02:36:10;;;;;;;4.30;1.73;;;;;;;;;;4391327;32;20077;-72
2022/04/17 02:38:37;;;;;;;2.47;1.60;;;;;;;;;;4391203;32;20078;-71
2022/04/17 02:41:04;;;;;;;3.00;1.87;;;;;;;;;;4392774;32;20073;-71
2022/04/17 02:43:30;;;;;;;2.37;1.70;;;;;;;;;;4379017;32;20085;-71
2022/04/17 02:45:57;;;;;;;3.67;1.80;;;;;;;;;;4391206;32;20513;-71
2022/04/17 02:48:24;;;;;;;4.20;1.98;;;;;;;;;;4392561;32;20084;-72
2022/04/17 02:50:51;;;;;;;2.25;1.35;;;;;;;;;;4378486;32;20066;-71
2022/04/17 02:53:18;;;;;;;3.08;1.87;;;;;;;;;;4391120;32;20081;-71
2022/04/17 02:55:45;;;;;;;3.55;1.92;;;;;;;;;;4392222;32;20103;-72
2022/04/17 02:58:12;;;;;;;4.32;1.92;;;;;;;;;;4378169;32;20524;-71
2022/04/17 03:06:10;;;;;;;3.77;1.70;;;;;;;;;;4391596;32;20089;-73
2022/04/17 03:08:41;;;;;;;2.12;1.70;;;;;;;;;;4391336;32;20184;-71
2022/04/17 03:11:08;;;;;;;2.22;1.77;;;;;;;;;;4390998;32;20081;-72
2022/04/17 03:13:35;;;;;;;2.42;1.80;;;;;;;;;;4378735;32;20096;-72
2022/04/17 03:16:02;;;;;;;2.50;1.70;;;;;;;;;;4390588;32;20081;-72
2022/04/17 03:18:29;;;;;;;3.03;1.90;;;;;;;;;;4390719;32;20111;-72
2022/04/17 03:20:58;;;;;;;3.08;1.80;;;;;;;;;;4390537;32;20141;-71
2022/04/17 03:23:25;;;;;;;2.08;1.80;;;;;;;;;;4390655;32;20065;-71
2022/04/17 03:25:52;;;;;;;1.98;1.62;;;;;;;;;;4390403;32;20077;-71
2022/04/17 03:28:19;;;;;;;3.95;2.08;;;;;;;;;;4390841;32;20104;-72
2022/04/17 03:30:46;;;;;;;4.30;1.92;;;;;;;;;;4391890;32;20062;-72
2022/04/17 03:33:12;;;;;;;2.10;1.58;;;;;;;;;;4391646;32;20096;-72
2022/04/17 03:35:39;;;;;;;3.03;2.03;;;;;;;;;;4377807;32;20089;-71
2022/04/17 03:38:05;;;;;;;3.70;1.98;;;;;;;;;;4391895;32;20141;-72
2022/04/17 03:40:32;;;;;;;2.00;1.70;;;;;;;;;;4377796;32;20066;-72
2022/04/17 03:42:59;;;;;;;1.98;1.35;;;;;;;;;;4390376;32;20506;-72
2022/04/17 03:45:25;;;;;;;3.55;2.00;;;;;;;;;;4391720;32;20537;-71
2022/04/17 03:47:52;;;;;;;3.67;1.73;;;;;;;;;;4390363;32;20092;-72
2022/04/17 03:50:18;;;;;;;2.87;1.60;;;;;;;;;;4390010;32;20093;-72
2022/04/17 03:52:50;;;;;;;2.75;2.10;;;;;;;;;;4391497;32;20098;-71
2022/04/17 03:55:16;;;;;;;2.40;1.70;;;;;;;;;;4390516;32;20568;-72
2022/04/17 03:57:43;;;;;;;4.65;1.87;;;;;;;;;;4390104;32;20090;-71
2022/04/17 04:00:12;;;;;;;1.70;1.60;;;;;;;;;;4390214;32;20097;-72
2022/04/17 04:02:40;;;;;;;3.35;2.10;;;;;;;;;;4377620;32;20154;-71
2022/04/17 04:05:10;;;;;;;3.22;1.60;;;;;;;;;;4390178;32;20257;-72
2022/04/17 04:07:37;;;;;;;2.90;1.80;;;;;;;;;;4378009;32;20094;-71
2022/04/17 04:10:05;;;;;;;3.17;1.70;;;;;;;;;;4390271;32;20098;-72
2022/04/17 04:12:33;;;;;;;1.98;1.73;;;;;;;;;;4390003;32;20085;-72
2022/04/17 04:15:00;;;;;;;3.20;1.67;;;;;;;;;;4390367;32;20074;-72
2022/04/17 04:17:26;;;;;;;1.85;1.35;;;;;;;;;;4391177;32;20077;-72
2022/04/17 04:19:53;;;;;;;3.53;1.67;;;;;;;;;;4389799;32;20603;-72
2022/04/17 04:22:21;;;;;;;4.70;1.50;;;;;;;;;;4389923;32;20128;-71
2022/04/17 04:24:48;;;;;;;2.85;1.83;;;;;;;;;;4389945;32;20079;-71
2022/04/17 04:30:00;;;;;;;2.45;1.73;;;;;;;;;;4390228;32;20171;-72
2022/04/17 04:32:27;;;;;;;3.65;2.05;;;;;;;;;;4391360;32;20527;-72
2022/04/17 04:34:58;;;;;;;4.80;2.10;;;;;;;;;;4391337;32;20176;-71
2022/04/17 04:37:25;;;;;;;3.97;1.95;;;;;;;;;;4377144;32;20085;-71
2022/04/17 04:39:52;;;;;;;2.47;1.37;;;;;;;;;;4389997;32;20096;-71
2022/04/17 04:42:22;;;;;;;2.35;1.80;;;;;;;;;;4391025;32;20158;-72
2022/04/17 04:46:06;;;;;;;4.60;1.80;;;;;;;;;;4389995;32;20142;-72
2022/04/17 04:47:35;;;;;;;3.60;1.62;;;;;;;;;;4391609;32;20093;-72
2022/04/17 04:50:02;;;;;;;2.53;1.70;;;;;;;;;;4389530;32;20157;-71
2022/04/17 04:52:29;;;;;;;4.45;2.10;;;;;;;;;;4377099;32;20186;-72
2022/04/17 04:54:55;;;;;;;3.60;1.80;;;;;;;;;;4377199;32;20066;-71
2022/04/17 04:57:22;;;;;;;3.40;1.80;;;;;;;;;;4391094;32;20082;-72
2022/04/17 04:59:48;;;;;;;4.43;1.80;;;;;;;;;;4389658;32;20077;-72
2022/04/17 05:02:15;;;;;;;2.35;1.70;;;;;;;;;;4389977;32;20156;-72
2022/04/17 05:04:42;;;;;;;2.08;1.83;;;;;;;;;;4376781;32;20116;-71
2022/04/17 05:07:08;;;;;;;3.53;1.70;;;;;;;;;;4390844;32;20085;-72
2022/04/17 05:09:36;;;;;;;2.03;1.67;;;;;;;;;;4391100;32;20074;-72
2022/04/17 05:12:02;;;;;;;2.62;1.98;;;;;;;;;;4389722;32;20212;-71
2022/04/17 05:14:29;;;;;;;2.72;1.60;;;;;;;;;;4390047;32;20087;-71
2022/04/17 05:16:56;;;;;;;5.07;1.67;;;;;;;;;;4390911;32;20093;-71
2022/04/17 05:19:27;;;;;;;2.75;1.70;;;;;;;;;;4389621;32;20170;-71
2022/04/17 05:21:58;;;;;;;1.73;1.62;;;;;;;;;;4389605;32;20069;-71
2022/04/17 05:24:26;;;;;;;2.35;1.83;;;;;;;;;;4365413;32;20092;-72
2022/04/17 05:26:52;;;;;;;2.28;1.75;;;;;;;;;;4378986;32;20090;-71
2022/04/17 05:29:19;;;;;;;2.92;1.85;;;;;;;;;;4391850;32;20077;-71
2022/04/17 05:31:48;;;;;;;3.47;2.10;;;;;;;;;;4392412;32;20078;-71
2022/04/17 05:34:15;;;;;;;3.25;1.80;;;;;;;;;;4392264;32;20085;-71
2022/04/17 05:36:42;;;;;;;1.90;1.55;;;;;;;;;;4392306;32;20157;-72
2022/04/17 05:39:09;;;;;;;2.50;1.85;;;;;;;;;;4392446;32;20170;-71
2022/04/17 05:41:36;;;;;;;2.87;1.83;;;;;;;;;;4392851;32;20090;-72
2022/04/17 05:44:03;;;;;;;2.65;1.92;;;;;;;;;;4393570;32;20069;-71
2022/04/17 05:46:35;;;;;;;2.22;1.77;;;;;;;;;;4379180;32;20467;-71
2022/04/17 05:49:03;;;;;;;2.12;1.60;;;;;;;;;;4392282;32;20085;-72
2022/04/17 05:51:30;;;;;;;2.75;2.03;;;;;;;;;;4379204;32;20070;-72
2022/04/17 05:53:58;;;;;;;1.75;1.62;;;;;;;;;;4367243;32;20077;-71
2022/04/17 05:56:24;;;;;;;2.45;1.75;;;;;;;;;;4379372;32;20078;-71
2022/04/17 05:58:51;;;;;;;3.83;2.10;;;;;;;;;;4391972;32;20078;-70
2022/04/17 06:01:18;;;;;;;3.03;2.10;;;;;;;;;;4392052;32;20085;-72
2022/04/17 06:03:44;;;;;;;2.22;1.60;;;;;;;;;;4393209;32;20065;-72
2022/04/17 06:06:11;;;;;;;3.08;1.75;;;;;;;;;;4393041;32;20162;-71
2022/04/17 06:08:38;;;;;;;3.25;2.15;;;;;;;;;;4366465;32;20535;-71
2022/04/17 06:11:04;;;;;;;3.62;1.90;;;;;;;;;;4393360;32;20080;-71
2022/04/17 06:13:31;;;;;;;2.70;1.80;;;;;;;;;;4392611;32;20081;-72
2022/04/17 06:15:58;;;;;;;2.90;2.10;;;;;;;;;;4392624;32;20116;-71
2022/04/17 06:18:24;;;;;;;3.87;1.85;;;;;;;;;;4392123;32;20149;-71
2022/04/17 06:20:51;;;;;;;2.65;1.98;;;;;;;;;;4392751;32;20145;-71
2022/04/17 06:23:17;;;;;;;5.35;1.92;;;;;;;;;;4391354;32;20125;-72
2022/04/17 06:25:44;;;;;;;2.30;1.70;;;;;;;;;;4379293;32;20158;-73
2022/04/17 06:28:11;;;;;;;6.43;2.00;;;;;;;;;;4379911;32;20073;-72
2022/04/17 06:30:38;;;;;;;2.95;2.00;;;;;;;;;;4393121;32;20164;-72
2022/04/17 06:33:04;;;;;;;4.50;1.85;;;;;;;;;;4393110;32;20572;-71
2022/04/17 06:35:31;;;;;;;3.22;2.40;;;;;;;;;;4378840;32;20082;-71
2022/04/17 06:38:00;;;;;;;2.87;1.73;;;;;;;;;;4392474;32;20093;-72
2022/04/17 06:40:28;;;;;;;4.12;2.05;;;;;;;;;;4378773;32;20085;-71
2022/04/17 06:42:56;;;;;;;3.03;1.95;;;;;;;;;;4391830;32;20081;-72
2022/04/17 06:45:25;;;;;;;3.05;1.98;;;;;;;;;;4391198;32;20155;-72
2022/04/17 06:47:52;;;;;;;2.20;2.00;;;;;;;;;;4378510;32;20089;-71
2022/04/17 06:50:19;;;;;;;3.10;1.95;;;;;;;;;;4390923;32;20062;-72
2022/04/17 06:52:45;;;;;;;4.57;2.20;;;;;;;;;;4392733;32;20166;-71
2022/04/17 06:55:12;;;;;;;2.65;1.85;;;;;;;;;;4392423;32;20157;-72
2022/04/17 06:57:49;;;;;;;2.95;1.80;;;;;;;;;;4392589;32;20076;-71
2022/04/17 07:00:17;;;;;;;2.72;2.03;;;;;;;;;;4366982;32;20089;-71
2022/04/17 07:02:44;;;;;;;3.08;2.10;;;;;;;;;;4392841;32;20140;-72
2022/04/17 07:05:12;;;;;;;5.53;2.37;;;;;;;;;;4390833;32;20138;-71
2022/04/17 07:07:39;;;;;;;4.20;2.17;;;;;;;;;;4391115;32;20077;-72
2022/04/17 07:10:06;;;;;;;3.97;2.17;;;;;;;;;;4365806;32;20467;-73
2022/04/17 07:12:34;;;;;;;2.65;1.90;;;;;;;;;;4390596;32;20070;-71
2022/04/17 07:15:02;;;;;;;4.03;2.20;;;;;;;;;;4390493;32;20503;-71
2022/04/17 07:17:36;;;;;;;4.28;2.33;;;;;;;;;;4390943;32;20107;-71
2022/04/17 07:20:07;;;;;;;2.90;1.90;;;;;;;;;;4390883;32;20082;-72
2022/04/17 07:22:35;;;;;;;6.28;1.77;;;;;;;;;;4390661;32;20534;-72
2022/04/17 07:25:02;;;;;;;3.83;1.95;;;;;;;;;;4391019;32;20141;-72
2022/04/17 07:27:38;;;;;;;3.72;1.98;;;;;;;;;;4391813;32;20151;-72
2022/04/17 07:30:09;;;;;;;2.33;1.70;;;;;;;;;;4390976;32;20081;-72
2022/04/17 07:32:36;;;;;;;3.87;2.33;;;;;;;;;;4392573;32;20079;-72
2022/04/17 07:35:02;;;;;;;2.87;1.85;;;;;;;;;;4390685;32;20140;-72
2022/04/17 07:37:32;;;;;;;4.45;2.10;;;;;;;;;;4391630;32;20085;-72
2022/04/17 07:39:58;;;;;;;2.70;2.00;;;;;;;;;;4390414;32;20504;-71
2022/04/17 07:42:25;;;;;;;2.97;2.00;;;;;;;;;;4378389;32;20067;-70
2022/04/17 07:44:51;;;;;;;4.32;2.17;;;;;;;;;;4390283;32;20153;-71
2022/04/17 07:47:18;;;;;;;2.47;1.80;;;;;;;;;;4391550;32;20468;-72
2022/04/17 07:49:45;;;;;;;3.47;2.30;;;;;;;;;;4391107;32;20085;-71
2022/04/17 07:52:11;;;;;;;6.72;2.15;;;;;;;;;;4390147;32;20085;-72
2022/04/17 07:54:39;;;;;;;3.90;2.12;;;;;;;;;;4390070;32;20170;-71
2022/04/17 07:57:06;;;;;;;4.00;2.05;;;;;;;;;;4391786;32;20150;-70
2022/04/17 07:59:33;;;;;;;3.80;2.05;;;;;;;;;;4391759;32;20078;-71
2022/04/17 08:02:11;;;;;;;4.00;2.00;;;;;;;;;;4391276;32;20068;-71
2022/04/17 08:04:41;;;;;;;6.12;2.08;;;;;;;;;;4379771;32;20521;-71
2022/04/17 08:07:08;;;;;;;2.33;1.85;;;;;;;;;;4379340;32;20514;-70
2022/04/17 08:09:34;;;;;;;5.60;2.25;;;;;;;;;;4391349;32;20174;-71
2022/04/17 08:12:01;;;;;;;4.15;2.10;;;;;;;;;;4391794;32;20177;-70
2022/04/17 08:14:28;;;;;;;2.87;2.10;;;;;;;;;;4390121;32;20061;-71
2022/04/17 08:16:54;;;;;;;2.12;1.60;;;;;;;;;;4392075;32;20066;-70
2022/04/17 08:19:22;;;;;;;2.83;2.00;;;;;;;;;;4390155;32;20077;-71
2022/04/17 08:21:48;;;;;;;3.80;2.10;;;;;;;;;;4391304;32;20495;-70
2022/04/17 08:24:15;;;;;;;3.70;2.37;;;;;;;;;;4390624;32;20080;-70
2022/04/17 08:26:42;;;;;;;4.87;2.22;;;;;;;;;;4391106;32;20081;-69
2022/04/17 08:29:10;;;;;;;6.93;2.20;;;;;;;;;;4377704;32;20081;-71
2022/04/17 08:31:36;;;;;;;5.35;2.30;;;;;;;;;;4391198;32;20174;-70
2022/04/17 08:34:03;;;;;;;4.68;2.10;;;;;;;;;;4377390;32;20097;-70
2022/04/17 08:36:30;;;;;;;4.80;2.35;;;;;;;;;;4389546;32;20157;-68
2022/04/17 08:38:56;;;;;;;3.15;2.22;;;;;;;;;;4391319;32;20247;-70
2022/04/17 08:41:24;;;;;;;3.90;2.47;;;;;;;;;;4391450;32;20081;-71
2022/04/17 08:43:50;;;;;;;4.32;2.53;;;;;;;;;;4377346;32;20081;-70
2022/04/17 08:46:17;;;;;;;3.42;2.15;;;;;;;;;;4390036;32;20526;-71
2022/04/17 08:48:44;;;;;;;5.15;2.40;;;;;;;;;;4389563;32;20065;-70
2022/04/17 08:51:11;;;;;;;2.80;2.10;;;;;;;;;;4378044;32;20077;-72
2022/04/17 08:53:38;;;;;;;3.25;2.22;;;;;;;;;;4378181;32;20100;-71
2022/04/17 08:56:05;;;;;;;4.07;2.08;;;;;;;;;;4377232;32;20145;-71
2022/04/17 08:58:32;;;;;;;5.35;2.42;;;;;;;;;;4376876;32;20507;-71
2022/04/17 09:00:59;;;;;;;2.97;2.20;;;;;;;;;;4393534;32;20185;-71
2022/04/17 09:03:26;;;;;;;3.65;2.97;;;;;;;;;;4392551;32;20534;-71
2022/04/17 09:05:53;;;;;;;3.60;2.12;;;;;;;;;;4393733;32;20090;-71
2022/04/17 09:08:23;;;;;;;4.32;2.60;;;;;;;;;;4379957;32;20100;-70
2022/04/17 09:10:57;;;;;;;3.30;2.42;;;;;;;;;;4392811;32;20162;-71
2022/04/17 09:13:31;;;;;;;6.90;2.20;;;;;;;;;;4392351;32;20516;-71
2022/04/17 09:15:59;;;;;;;3.72;2.53;;;;;;;;;;4379534;32;20455;-70
2022/04/17 09:18:30;;;;;;;4.32;2.42;;;;;;;;;;4393832;32;20500;-71
2022/04/17 09:20:57;;;;;;;3.10;2.08;;;;;;;;;;4392497;32;20453;-71
2022/04/17 09:23:36;;;;;;;4.20;2.80;;;;;;;;;;4392638;32;20141;-71
2022/04/17 09:26:04;;;;;;;3.25;2.28;;;;;;;;;;4392454;32;20093;-71
2022/04/17 09:28:35;;;;;;;5.28;2.28;;;;;;;;;;4394557;32;20077;-72
2022/04/17 09:31:13;;;;;;;4.93;2.60;;;;;;;;;;4394175;32;20093;-72
2022/04/17 09:33:42;;;;;;;4.22;2.33;;;;;;;;;;4392847;32;20464;-71
2022/04/17 09:36:09;;;;;;;4.30;2.20;;;;;;;;;;4393760;32;20151;-71
2022/04/17 09:38:36;;;;;;;3.40;2.22;;;;;;;;;;4392299;32;20073;-71
2022/04/17 09:41:06;;;;;;;4.72;2.28;;;;;;;;;;4391953;32;20530;-71
2022/04/17 09:43:36;;;;;;;6.07;2.40;;;;;;;;;;4392709;32;20070;-71
2022/04/17 09:46:07;;;;;;;4.45;2.40;;;;;;;;;;4392173;32;20077;-71
2022/04/17 09:48:35;;;;;;;3.62;2.25;;;;;;;;;;4392294;32;20078;-71
2022/04/17 09:51:25;;;;;;;6.50;2.72;;;;;;;;;;4393494;32;20149;-71
2022/04/17 09:54:06;;;;;;;5.05;2.28;;;;;;;;;;4367326;32;20642;-70
2022/04/17 09:56:38;;;;;;;4.55;2.40;;;;;;;;;;4380023;32;20546;-72
2022/04/17 09:59:20;;;;;;;6.12;2.45;;;;;;;;;;4391777;32;20158;-71
2022/04/17 10:01:49;;;;;;;5.70;2.60;;;;;;;;;;4391853;32;20462;-70
2022/04/17 10:04:20;;;;;;;4.18;2.40;;;;;;;;;;4391896;32;20073;-70
2022/04/17 10:06:54;;;;;;;4.37;2.50;;;;;;;;;;4391679;32;20082;-72
2022/04/17 10:09:21;;;;;;;7.22;2.50;;;;;;;;;;4392160;32;20070;-71
2022/04/17 10:11:49;;;;;;;2.58;2.28;;;;;;;;;;4392479;32;20089;-71
2022/04/17 10:14:16;;;;;;;4.47;2.42;;;;;;;;;;4379409;32;20161;-71
2022/04/17 10:16:45;;;;;;;4.22;2.30;;;;;;;;;;4392229;32;20077;-70
2022/04/17 10:19:13;;;;;;;2.97;2.10;;;;;;;;;;4391951;32;20216;-71
2022/04/17 10:21:40;;;;;;;4.05;2.53;;;;;;;;;;4392549;32;20088;-70
2022/04/17 10:24:11;;;;;;;5.95;2.40;;;;;;;;;;4378960;32;20130;-71
2022/04/17 10:26:45;;;;;;;5.10;2.33;;;;;;;;;;4379483;32;20092;-71
2022/04/17 10:29:37;;;;;;;7.30;2.10;;;;;;;;;;4391509;32;20137;-71
2022/04/17 10:32:22;;;;;;;4.47;2.45;;;;;;;;;;4386751;32;20168;-71
2022/04/17 10:35:12;;;;;;;4.55;2.78;;;;;;;;;;4392907;32;20090;-70
2022/04/17 10:38:00;;;;;;;6.00;2.40;;;;;;;;;;4379683;32;20092;-71
2022/04/17 10:40:28;;;;;;;4.40;2.47;;;;;;;;;;4392952;32;20675;-71
2022/04/17 10:42:56;;;;;;;3.65;2.40;;;;;;;;;;4391331;32;20512;-71
2022/04/17 10:45:23;;;;;;;3.30;2.55;;;;;;;;;;4392751;32;20459;-70
2022/04/17 10:48:02;;;;;;;5.93;2.70;;;;;;;;;;4392672;32;20078;-71
2022/04/17 10:50:50;;;;;;;5.75;2.80;;;;;;;;;;4391389;32;20062;-71
2022/04/17 10:53:27;;;;;;;7.97;2.90;;;;;;;;;;4378424;32;20096;-71
2022/04/17 10:56:08;;;;;;;4.00;2.50;;;;;;;;;;4391361;32;20097;-70
2022/04/17 10:58:37;;;;;;;3.22;2.05;;;;;;;;;;4390861;32;20429;-71
2022/04/17 11:01:04;;;;;;;3.87;2.20;;;;;;;;;;4366242;32;20089;-71
2022/04/17 11:03:34;;;;;;;4.97;2.25;;;;;;;;;;4392282;32;20515;-71
2022/04/17 11:06:30;;;;;;;4.35;2.53;;;;;;;;;;4378056;32;20482;-71
2022/04/17 11:09:21;;;;;;;7.85;3.20;;;;;;;;;;4392379;32;20084;-71
2022/04/17 11:11:48;;;;;;;5.10;2.95;;;;;;;;;;4392498;32;20149;-72
2022/04/17 11:14:21;;;;;;;5.28;2.30;;;;;;;;;;4391132;32;20440;-71
2022/04/17 11:16:54;;;;;;;4.97;2.62;;;;;;;;;;4378156;32;20081;-71
2022/04/17 11:19:30;;;;;;;4.07;2.10;;;;;;;;;;4378105;32;20073;-71
2022/04/17 11:22:04;;;;;;;3.55;2.85;;;;;;;;;;4391050;32;20093;-71
2022/04/17 11:24:55;;;;;;;3.05;2.45;;;;;;;;;;4390358;32;20511;-71
2022/04/17 11:27:41;;;;;;;3.53;2.55;;;;;;;;;;4390833;32;20117;-71
2022/04/17 11:30:16;;;;;;;3.90;2.25;;;;;;;;;;4391251;32;20163;-71
2022/04/17 11:32:43;;;;;;;5.05;2.40;;;;;;;;;;4392181;32;20507;-71
2022/04/17 11:35:14;;;;;;;4.75;2.50;;;;;;;;;;4390841;32;20157;-70
2022/04/17 11:37:51;;;;;;;3.53;2.22;;;;;;;;;;4377957;32;20146;-71
2022/04/17 11:40:19;;;;;;;3.90;2.70;;;;;;;;;;4377973;32;20525;-71
2022/04/17 11:42:47;;;;;;;4.55;2.47;;;;;;;;;;4378073;32;20089;-71
2022/04/17 11:45:26;;;;;;;3.33;2.22;;;;;;;;;;4378454;32;20077;-71
2022/04/17 11:47:54;;;;;;;4.37;2.58;;;;;;;;;;4391877;32;20081;-71
2022/04/17 11:50:28;;;;;;;3.53;2.40;;;;;;;;;;4377715;32;20070;-71
2022/04/17 11:53:06;;;;;;;3.70;2.37;;;;;;;;;;4377476;32;20080;-71
2022/04/17 11:55:35;;;;;;;4.15;2.47;;;;;;;;;;4390335;32;20085;-71
2022/04/17 11:58:02;;;;;;;5.03;2.60;;;;;;;;;;4390271;32;20097;-71
2022/04/17 12:00:30;;;;;;;5.12;2.97;;;;;;;;;;4389837;32;20144;-71
2022/04/17 12:02:58;;;;;;;4.95;2.55;;;;;;;;;;4392125;32;20073;-71
2022/04/17 12:05:25;;;;;;;3.83;2.55;;;;;;;;;;4390001;32;20089;-71
2022/04/17 12:08:04;;;;;;;2.65;2.20;;;;;;;;;;4377987;32;20165;-71
2022/04/17 12:10:31;;;;;;;7.57;2.60;;;;;;;;;;4390111;32;20085;-71
2022/04/17 12:12:58;;;;;;;4.07;2.67;;;;;;;;;;4391445;32;20602;-71
2022/04/17 12:15:25;;;;;;;4.65;2.72;;;;;;;;;;4378135;32;20097;-72
2022/04/17 12:17:59;;;;;;;4.68;2.33;;;;;;;;;;4391614;32;20142;-70
2022/04/17 12:20:26;;;;;;;4.18;2.30;;;;;;;;;;4377501;32;20086;-70
2022/04/17 12:22:53;;;;;;;4.05;2.35;;;;;;;;;;4390240;32;20503;-70
2022/04/17 12:25:24;;;;;;;4.12;1.95;;;;;;;;;;4389982;32;20100;-71
2022/04/17 12:27:52;;;;;;;3.55;2.20;;;;;;;;;;4377872;32;20679;-71
2022/04/17 12:30:24;;;;;;;4.57;2.30;;;;;;;;;;4391341;32;20105;-71
2022/04/17 12:32:55;;;;;;;4.45;2.30;;;;;;;;;;4390530;32;20495;-70
2022/04/17 12:35:26;;;;;;;3.35;2.35;;;;;;;;;;4392881;32;20137;-70
2022/04/17 12:38:12;;;;;;;3.15;2.12;;;;;;;;;;4392831;32;20500;-69
2022/04/17 12:40:42;;;;;;;2.75;1.90;;;;;;;;;;4393557;32;20512;-71
2022/04/17 12:43:19;;;;;;;2.87;2.22;;;;;;;;;;4369017;32;20181;-71
2022/04/17 12:46:28;;;;;;;3.05;2.20;;;;;;;;;;4392967;32;20066;-71
2022/04/17 12:49:09;;;;;;;5.35;2.50;;;;;;;;;;4385805;32;20087;-71
2022/04/17 12:51:38;;;;;;;8.82;2.65;;;;;;;;;;4393297;32;20089;-71
2022/04/17 12:54:08;;;;;;;4.65;2.72;;;;;;;;;;4392533;32;20073;-72
2022/04/17 12:56:35;;;;;;;4.97;2.60;;;;;;;;;;4380241;32;20080;-72
2022/04/17 12:59:03;;;;;;;6.55;3.08;;;;;;;;;;4392849;32;20078;-71
2022/04/17 13:01:33;;;;;;;7.30;2.78;;;;;;;;;;4380101;32;20082;-71
2022/04/17 13:04:12;;;;;;;4.90;2.75;;;;;;;;;;4368095;32;20158;-70
2022/04/17 13:06:39;;;;;;;5.30;3.00;;;;;;;;;;4394139;32;20081;-72
2022/04/17 13:09:21;;;;;;;3.62;2.75;;;;;;;;;;4392563;32;20073;-71
2022/04/17 13:11:53;;;;;;;4.68;3.00;;;;;;;;;;4381546;32;20085;-71
2022/04/17 13:14:24;;;;;;;4.25;2.80;;;;;;;;;;4394215;32;20133;-71
2022/04/17 13:16:57;;;;;;;5.30;3.08;;;;;;;;;;4379893;32;20460;-71
2022/04/17 13:19:26;;;;;;;4.85;3.08;;;;;;;;;;4379900;32;20074;-70
2022/04/17 13:21:54;;;;;;;4.97;3.15;;;;;;;;;;4380197;32;20518;-71
2022/04/17 13:24:26;;;;;;;4.65;3.12;;;;;;;;;;4392418;32;20077;-70
2022/04/17 13:26:53;;;;;;;6.07;3.22;;;;;;;;;;4380430;32;20160;-71
2022/04/17 13:29:21;;;;;;;8.23;3.47;;;;;;;;;;4392020;32;20166;-71
2022/04/17 13:31:51;;;;;;;7.10;3.65;;;;;;;;;;4392375;32;20101;-71
2022/04/17 13:34:18;;;;;;;5.35;3.35;;;;;;;;;;4392121;32;20088;-70
2022/04/17 13:36:46;;;;;;;5.43;3.40;;;;;;;;;;4392052;32;20471;-71
2022/04/17 13:39:20;;;;;;;5.20;3.35;;;;;;;;;;4392170;32;20094;-71
2022/04/17 13:41:46;;;;;;;6.40;3.90;;;;;;;;;;4394148;32;20086;-72
2022/04/17 13:44:13;;;;;;;5.85;3.60;;;;;;;;;;4393636;32;20073;-71
2022/04/17 13:46:40;;;;;;;5.35;3.65;;;;;;;;;;4393037;32;20086;-71
2022/04/17 13:49:06;;;;;;;5.05;3.25;;;;;;;;;;4392173;32;20528;-71
2022/04/17 13:51:33;;;;;;;7.32;3.53;;;;;;;;;;4379676;32;20149;-71
2022/04/17 13:54:00;;;;;;;5.85;3.20;;;;;;;;;;4393941;32;20591;-72
2022/04/17 13:56:26;;;;;;;5.35;3.47;;;;;;;;;;4393549;32;20080;-72
2022/04/17 13:58:53;;;;;;;5.80;3.40;;;;;;;;;;4379362;32;20081;-71
2022/04/17 14:01:19;;;;;;;4.95;3.62;;;;;;;;;;4391919;32;20069;-71
2022/04/17 14:03:46;;;;;;;5.15;3.35;;;;;;;;;;4379770;32;20069;-72
2022/04/17 14:06:13;;;;;;;6.00;3.60;;;;;;;;;;4392102;32;20070;-71
2022/04/17 14:08:41;;;;;;;7.07;4.00;;;;;;;;;;4393114;32;20077;-71
2022/04/17 14:11:07;;;;;;;6.00;3.80;;;;;;;;;;4394346;32;20077;-72
2022/04/17 14:13:34;;;;;;;6.32;3.70;;;;;;;;;;4367412;32;20109;-70
2022/04/17 14:16:01;;;;;;;4.82;3.55;;;;;;;;;;4395917;32;20078;-72
2022/04/17 14:18:27;;;;;;;7.68;3.85;;;;;;;;;;4400180;32;20142;-73
2022/04/17 14:20:54;;;;;;;9.20;4.07;;;;;;;;;;4401013;32;20105;-71
2022/04/17 14:23:20;;;;;;;6.68;3.78;;;;;;;;;;4388536;32;20093;-71
2022/04/17 14:25:47;;;;;;;8.38;3.75;;;;;;;;;;4403508;32;20452;-71
2022/04/17 14:28:15;;;;;;;4.87;3.87;;;;;;;;;;4388834;32;20070;-72
2022/04/17 14:30:42;;;;;;;6.32;4.03;;;;;;;;;;4400586;32;20098;-73
2022/04/17 14:33:08;;;;;;;5.40;3.50;;;;;;;;;;4388795;32;20092;-71
2022/04/17 14:35:35;;;;;;;6.47;3.70;;;;;;;;;;4400209;32;20147;-71
2022/04/17 14:38:02;;;;;;;8.55;3.90;;;;;;;;;;4401028;32;20086;-72
2022/04/17 14:40:29;;;;;;;5.90;3.78;;;;;;;;;;4387632;32;20089;-71
2022/04/17 14:42:58;;;;;;;5.78;4.00;;;;;;;;;;4382827;32;20065;-71
2022/04/17 14:45:25;;;;;;;5.57;4.00;;;;;;;;;;4380762;32;20060;-74
2022/04/17 14:47:52;;;;;;;6.28;3.85;;;;;;;;;;4395915;32;20077;-71
2022/04/17 14:50:21;;;;;;;9.18;4.10;;;;;;;;;;4379282;32;20524;-72
2022/04/17 14:52:49;;;;;;;7.50;3.60;;;;;;;;;;4378859;32;20077;-72
2022/04/17 14:55:16;;;;;;;7.32;4.00;;;;;;;;;;4379151;32;20162;-71
2022/04/17 14:57:42;;;;;;;5.87;3.90;;;;;;;;;;4390800;32;20092;-70
2022/04/17 15:00:09;;;;;;;5.90;4.28;;;;;;;;;;4392800;32;20093;-71
2022/04/17 15:02:36;;;;;;;8.20;4.57;;;;;;;;;;4392528;32;20527;-71
2022/04/17 15:05:06;;;;;;;8.70;4.32;;;;;;;;;;4390753;32;20073;-70